createdAt,value
2024-05-09T00:00:48.121Z,80.17
2024-05-09T00:03:36.707Z,78.88
2024-05-09T00:06:05.811Z,79.40
2024-05-09T00:08:35.125Z,80.66
2024-05-09T00:11:03.968Z,79.18
2024-05-09T00:13:32.672Z,78.80
2024-05-09T00:16:01.218Z,78.71
2024-05-09T00:18:29.794Z,78.83
2024-05-09T00:20:58.295Z,79.11
2024-05-09T00:23:27.017Z,79.00
2024-05-09T00:25:55.559Z,78.89
2024-05-09T00:28:25.761Z,78.58
2024-05-09T00:30:54.571Z,80.78
2024-05-09T00:33:23.132Z,81.60
2024-05-09T00:35:51.479Z,82.14
2024-05-09T00:38:19.667Z,82.80
2024-05-09T00:40:47.922Z,82.45
2024-05-09T00:43:16.307Z,82.13
2024-05-09T00:45:44.762Z,82.69
2024-05-09T00:48:17.299Z,81.41
2024-05-09T00:50:48.336Z,80.67
2024-05-09T00:53:18.512Z,80.27
2024-05-09T00:55:47.774Z,80.22
2024-05-09T00:58:19.372Z,79.94
2024-05-09T01:00:49.154Z,79.61
2024-05-09T01:03:18.008Z,81.35
2024-05-09T01:05:46.502Z,82.42
2024-05-09T01:08:14.843Z,83.34
2024-05-09T01:10:46.105Z,84.00
2024-05-09T01:13:16.361Z,84.41
2024-05-09T01:15:44.573Z,83.91
2024-05-09T01:18:13.806Z,83.54
2024-05-09T01:20:44.682Z,82.92
2024-05-09T01:23:15.859Z,83.64
2024-05-09T01:25:46.532Z,83.88
2024-05-09T01:28:16.160Z,84.48
2024-05-09T01:30:44.758Z,83.23
2024-05-09T01:33:13.560Z,81.57
2024-05-09T01:35:43.071Z,80.92
2024-05-09T01:38:17.346Z,80.92
2024-05-09T01:40:48.041Z,81.36
2024-05-09T01:43:16.412Z,82.64
2024-05-09T01:45:44.902Z,83.40
2024-05-09T01:48:13.766Z,81.86
2024-05-09T01:50:43.301Z,81.17
2024-05-09T01:53:14.715Z,81.39
2024-05-09T01:55:44.582Z,80.95
2024-05-09T01:58:13.302Z,80.71
2024-05-09T02:00:43.134Z,80.14
2024-05-09T02:03:16.413Z,79.90
2024-05-09T02:05:49.814Z,79.91
2024-05-09T02:08:19.912Z,81.00
2024-05-09T02:10:50.032Z,83.09
2024-05-09T02:13:18.917Z,83.42
2024-05-09T02:15:47.373Z,81.85
2024-05-09T02:18:15.844Z,80.77
2024-05-09T02:20:44.401Z,82.63
2024-05-09T02:23:13.880Z,82.92
2024-05-09T02:25:42.479Z,82.21
2024-05-09T02:28:10.977Z,81.32
2024-05-09T02:30:41.468Z,81.10
2024-05-09T02:33:13.003Z,81.19
2024-05-09T02:35:44.228Z,82.09
2024-05-09T02:38:13.646Z,83.68
2024-05-09T02:40:42.139Z,83.75
2024-05-09T02:43:12.661Z,84.00
2024-05-09T02:45:41.890Z,84.88
2024-05-09T02:48:11.865Z,82.48
2024-05-09T02:50:41.227Z,81.87
2024-05-09T02:53:11.815Z,81.61
2024-05-09T02:55:41.242Z,81.64
2024-05-09T02:58:10.647Z,81.33
2024-05-09T03:00:41.620Z,81.12
2024-05-09T03:03:14.380Z,80.76
2024-05-09T03:05:46.799Z,80.95
2024-05-09T03:08:15.512Z,81.59
2024-05-09T03:10:43.956Z,81.66
2024-05-09T03:13:15.451Z,81.39
2024-05-09T03:15:45.176Z,81.12
2024-05-09T03:18:13.924Z,83.10
2024-05-09T03:20:44.622Z,84.57
2024-05-09T03:23:13.479Z,82.68
2024-05-09T03:25:42.065Z,82.29
2024-05-09T03:28:11.558Z,82.94
2024-05-09T03:30:42.479Z,82.96
2024-05-09T03:33:18.815Z,82.95
2024-05-09T03:35:49.534Z,83.01
2024-05-09T03:38:18.383Z,83.61
2024-05-09T03:40:48.182Z,84.85
2024-05-09T03:43:18.358Z,85.01
2024-05-09T03:45:49.305Z,85.22
2024-05-09T03:48:17.716Z,83.23
2024-05-09T03:50:47.142Z,82.61
2024-05-09T03:53:15.648Z,84.08
2024-05-09T03:55:44.329Z,83.80
2024-05-09T03:58:14.536Z,83.43
2024-05-09T04:00:43.451Z,82.37
2024-05-09T04:03:13.198Z,82.39
2024-05-09T04:05:45.992Z,82.38
2024-05-09T04:08:15.508Z,82.26
2024-05-09T04:10:44.370Z,82.43
2024-05-09T04:13:12.986Z,81.72
2024-05-09T04:15:41.528Z,81.70
2024-05-09T04:18:10.095Z,81.63
2024-05-09T04:20:40.747Z,81.53
2024-05-09T04:23:14.627Z,81.31
2024-05-09T04:25:45.308Z,81.09
2024-05-09T04:28:14.498Z,81.21
2024-05-09T04:30:43.595Z,81.03
2024-05-09T04:33:14.939Z,80.64
2024-05-09T04:35:44.184Z,80.44
2024-05-09T04:38:13.985Z,80.17
2024-05-09T04:40:43.870Z,80.14
2024-05-09T04:43:18.569Z,79.16
2024-05-09T04:45:47.043Z,78.27
2024-05-09T04:48:16.531Z,76.97
2024-05-09T04:50:45.470Z,76.78
2024-05-09T04:53:17.214Z,76.17
2024-05-09T04:55:46.301Z,75.87
2024-05-09T04:58:15.118Z,77.01
2024-05-09T05:00:44.196Z,76.89
2024-05-09T05:03:14.998Z,76.61
2024-05-09T05:05:47.143Z,76.70
2024-05-09T05:08:18.207Z,76.66
2024-05-09T05:10:48.717Z,75.98
2024-05-09T05:13:22.725Z,76.23
2024-05-09T05:15:56.943Z,75.21
2024-05-09T05:18:28.228Z,74.41
2024-05-09T05:20:57.848Z,74.02
2024-05-09T05:23:26.159Z,74.60
2024-05-09T05:25:55.434Z,74.27
2024-05-09T05:28:24.344Z,73.17
2024-05-09T05:30:52.696Z,73.32
2024-05-09T05:33:23.051Z,72.05
2024-05-09T05:35:51.782Z,71.89
2024-05-09T05:38:22.842Z,72.78
2024-05-09T05:40:53.406Z,73.00
2024-05-09T05:43:21.895Z,72.13
2024-05-09T05:45:50.727Z,71.96
2024-05-09T05:48:19.319Z,71.58
2024-05-09T05:50:48.192Z,71.06
2024-05-09T05:53:17.096Z,71.07
2024-05-09T05:55:45.668Z,70.90
2024-05-09T05:58:14.783Z,71.06
2024-05-09T06:00:43.452Z,70.77
2024-05-09T06:03:13.460Z,71.00
2024-05-09T06:05:48.772Z,71.02
2024-05-09T06:08:17.349Z,70.85
2024-05-09T06:10:46.454Z,67.82
2024-05-09T06:13:15.973Z,68.11
2024-05-09T06:15:45.083Z,68.99
2024-05-09T06:18:15.102Z,68.27
2024-05-09T06:20:44.462Z,68.14
2024-05-09T06:23:14.525Z,67.68
2024-05-09T06:25:44.072Z,67.68
2024-05-09T06:28:13.139Z,66.64
2024-05-09T06:30:43.155Z,66.91
2024-05-09T06:33:14.681Z,66.74
2024-05-09T06:35:46.320Z,66.06
2024-05-09T06:38:15.373Z,66.18
2024-05-09T06:40:44.642Z,65.56
2024-05-09T06:43:15.430Z,65.13
2024-05-09T06:45:47.632Z,64.83
2024-05-09T06:48:20.516Z,64.35
2024-05-09T06:50:49.857Z,65.38
2024-05-09T06:53:20.547Z,64.88
2024-05-09T06:55:49.104Z,64.59
2024-05-09T06:58:17.882Z,63.56
2024-05-09T07:00:46.249Z,63.08
2024-05-09T07:03:17.828Z,60.48
2024-05-09T07:05:49.213Z,58.92
2024-05-09T07:08:19.088Z,61.20
2024-05-09T07:10:48.000Z,60.36
2024-05-09T07:13:16.650Z,59.67
2024-05-09T07:15:45.339Z,59.15
2024-05-09T07:18:17.180Z,60.58
2024-05-09T07:20:50.750Z,60.16
2024-05-09T07:23:19.767Z,60.01
2024-05-09T07:25:48.237Z,58.12
2024-05-09T07:28:18.127Z,55.55
2024-05-09T07:30:46.930Z,54.13
2024-05-09T07:33:17.480Z,53.24
2024-05-09T07:35:46.124Z,45.87
2024-05-09T07:38:14.710Z,47.91
2024-05-09T07:40:43.490Z,45.25
2024-05-09T07:43:12.970Z,48.61
2024-05-09T07:45:50.726Z,47.88
2024-05-09T07:50:00.973Z,45.81
2024-05-09T07:53:49.681Z,38.26
2024-05-09T07:56:23.150Z,40.64
2024-05-09T07:58:54.195Z,42.98
2024-05-09T08:01:25.653Z,39.05
2024-05-09T08:03:55.299Z,41.90
2024-05-09T08:06:24.357Z,39.66
2024-05-09T08:08:52.745Z,39.07
2024-05-09T08:11:21.012Z,40.21
2024-05-09T08:13:49.302Z,39.13
2024-05-09T08:16:18.082Z,40.02
2024-05-09T08:18:46.475Z,41.81
2024-05-09T08:21:15.036Z,40.37
2024-05-09T08:23:43.177Z,41.47
2024-05-09T08:26:11.924Z,42.22
2024-05-09T08:28:40.248Z,41.77
2024-05-09T08:31:10.306Z,38.71
2024-05-09T08:33:45.255Z,37.53
2024-05-09T08:36:14.197Z,39.49
2024-05-09T08:38:42.495Z,36.19
2024-05-09T08:41:14.054Z,38.19
2024-05-09T08:43:44.479Z,38.71
2024-05-09T08:46:14.164Z,37.45
2024-05-09T08:48:45.623Z,34.57
2024-05-09T08:51:14.221Z,36.84
2024-05-09T08:53:42.501Z,34.52
2024-05-09T08:56:11.839Z,31.59
2024-05-09T08:58:42.079Z,33.23
2024-05-09T09:01:12.555Z,31.42
2024-05-09T09:03:41.659Z,32.02
2024-05-09T09:06:12.613Z,32.04
2024-05-09T09:08:41.400Z,32.37
2024-05-09T09:11:10.745Z,33.11
2024-05-09T09:13:39.067Z,33.25
2024-05-09T09:16:07.647Z,33.07
2024-05-09T09:18:36.083Z,32.66
2024-05-09T09:21:04.838Z,31.92
2024-05-09T09:23:33.479Z,32.26
2024-05-09T09:26:01.968Z,31.16
2024-05-09T09:28:30.232Z,30.84
2024-05-09T09:31:03.366Z,31.04
2024-05-09T09:33:32.778Z,29.78
2024-05-09T09:36:06.299Z,29.84
2024-05-09T09:38:40.074Z,31.67
2024-05-09T09:41:10.757Z,30.74
2024-05-09T09:43:40.855Z,29.97
2024-05-09T09:46:12.232Z,30.33
2024-05-09T09:48:41.938Z,30.46
2024-05-09T09:51:10.881Z,29.38
2024-05-09T09:53:39.935Z,29.15
2024-05-09T09:56:08.088Z,29.55
2024-05-09T09:58:38.848Z,30.30
2024-05-09T10:01:07.099Z,28.85
2024-05-09T10:03:35.599Z,28.84
2024-05-09T10:06:05.026Z,28.30
2024-05-09T10:08:34.271Z,28.21
2024-05-09T10:11:04.278Z,28.31
2024-05-09T10:13:34.031Z,28.33
2024-05-09T10:16:09.249Z,27.76
2024-05-09T10:18:39.376Z,27.71
2024-05-09T10:21:21.113Z,28.21
2024-05-09T10:24:00.583Z,27.76
2024-05-09T10:26:38.940Z,28.03
2024-05-09T10:29:18.477Z,28.15
2024-05-09T10:31:47.995Z,27.85
2024-05-09T10:34:23.434Z,28.05
2024-05-09T10:36:54.307Z,28.66
2024-05-09T10:39:23.094Z,28.08
2024-05-09T10:41:51.447Z,28.98
2024-05-09T10:44:21.525Z,28.31
2024-05-09T10:46:50.669Z,28.97
2024-05-09T10:49:19.218Z,28.33
2024-05-09T10:51:48.606Z,28.78
2024-05-09T10:54:17.394Z,28.69
2024-05-09T10:56:45.814Z,27.98
2024-05-09T10:59:13.941Z,26.89
2024-05-09T11:01:42.374Z,26.91
2024-05-09T11:04:10.918Z,26.82
2024-05-09T11:06:39.261Z,25.31
2024-05-09T11:09:07.776Z,25.48
2024-05-09T11:11:36.193Z,26.64
2024-05-09T11:14:14.022Z,26.03
2024-05-09T11:16:42.143Z,26.37
2024-05-09T11:19:14.515Z,26.56
2024-05-09T11:21:43.211Z,26.92
2024-05-09T11:24:11.894Z,26.70
2024-05-09T11:26:40.240Z,26.64
2024-05-09T11:29:08.679Z,26.48
2024-05-09T11:31:47.001Z,26.36
2024-05-09T11:34:16.262Z,24.43
2024-05-09T11:36:44.736Z,23.73
2024-05-09T11:39:14.613Z,25.35
2024-05-09T11:41:43.149Z,24.60
2024-05-09T11:44:11.398Z,25.35
2024-05-09T11:46:39.821Z,25.07
2024-05-09T11:49:09.681Z,25.14
2024-05-09T11:51:38.288Z,25.92
2024-05-09T11:54:06.681Z,26.95
2024-05-09T11:56:34.791Z,27.31
2024-05-09T11:59:03.384Z,27.85
2024-05-09T12:01:31.646Z,27.65
2024-05-09T12:04:00.141Z,27.34
2024-05-09T12:06:29.666Z,27.20
2024-05-09T12:08:57.970Z,27.58
2024-05-09T12:11:26.318Z,27.68
2024-05-09T12:13:54.517Z,27.71
2024-05-09T12:16:23.068Z,28.02
2024-05-09T12:18:52.001Z,28.14
2024-05-09T12:21:20.526Z,27.99
2024-05-09T12:23:48.805Z,28.76
2024-05-09T12:26:17.308Z,28.59
2024-05-09T12:28:45.696Z,28.50
2024-05-09T12:31:14.065Z,27.95
2024-05-09T12:33:42.339Z,28.81
2024-05-09T12:36:11.079Z,28.51
2024-05-09T12:38:40.930Z,28.43
2024-05-09T12:41:10.333Z,28.65
2024-05-09T12:43:38.752Z,29.27
2024-05-09T12:46:07.189Z,30.06
2024-05-09T12:48:35.745Z,29.66
2024-05-09T12:51:05.899Z,29.44
2024-05-09T12:53:36.355Z,29.33
2024-05-09T12:56:06.642Z,29.43
2024-05-09T12:58:36.923Z,29.21
2024-05-09T13:01:05.222Z,28.87
2024-05-09T13:03:33.784Z,29.73
2024-05-09T13:06:02.285Z,29.81
2024-05-09T13:08:30.728Z,29.93
2024-05-09T13:10:58.863Z,30.43
2024-05-09T13:13:29.011Z,30.47
2024-05-09T13:15:57.312Z,30.40
2024-05-09T13:18:26.003Z,30.40
2024-05-09T13:20:54.462Z,30.47
2024-05-09T13:23:22.817Z,30.39
2024-05-09T13:25:51.053Z,30.34
2024-05-09T13:28:21.115Z,30.45
2024-05-09T13:30:49.554Z,30.11
2024-05-09T13:33:18.073Z,29.69
2024-05-09T13:35:49.762Z,29.93
2024-05-09T13:38:20.732Z,30.32
2024-05-09T13:40:50.451Z,30.81
2024-05-09T13:43:20.858Z,30.92
2024-05-09T13:45:49.182Z,31.33
2024-05-09T13:48:18.154Z,30.57
2024-05-09T13:50:46.463Z,29.50
2024-05-09T13:53:15.073Z,29.73
2024-05-09T13:55:43.263Z,30.32
2024-05-09T13:58:11.530Z,30.69
2024-05-09T14:00:46.342Z,31.69
2024-05-09T14:03:19.838Z,32.16
2024-05-09T14:05:51.375Z,32.17
2024-05-09T14:08:22.122Z,32.26
2024-05-09T14:10:52.200Z,32.02
2024-05-09T14:13:20.685Z,31.14
2024-05-09T14:15:49.474Z,31.55
2024-05-09T14:18:18.001Z,31.17
2024-05-09T14:20:46.277Z,31.44
2024-05-09T14:23:14.959Z,30.96
2024-05-09T14:25:44.483Z,30.96
2024-05-09T14:28:14.235Z,30.99
2024-05-09T14:30:42.984Z,31.28
2024-05-09T14:33:12.496Z,31.21
2024-05-09T14:35:40.740Z,30.51
2024-05-09T14:38:10.058Z,30.71
2024-05-09T14:40:42.503Z,30.31
2024-05-09T14:43:14.636Z,29.90
2024-05-09T14:45:44.624Z,29.56
2024-05-09T14:48:15.363Z,29.39
2024-05-09T14:50:44.171Z,29.81
2024-05-09T14:53:13.853Z,29.86
2024-05-09T14:55:43.563Z,30.24
2024-05-09T14:58:13.169Z,30.12
2024-05-09T15:00:46.726Z,30.73
2024-05-09T15:03:22.314Z,30.70
2024-05-09T15:05:52.268Z,30.84
2024-05-09T15:08:20.883Z,30.73
2024-05-09T15:10:50.110Z,30.55
2024-05-09T15:13:20.457Z,30.47
2024-05-09T15:15:49.576Z,30.48
2024-05-09T15:18:18.138Z,30.51
2024-05-09T15:20:47.082Z,30.71
2024-05-09T15:23:15.553Z,30.59
2024-05-09T15:25:44.830Z,30.24
2024-05-09T15:28:13.632Z,30.64
2024-05-09T15:30:45.944Z,30.49
2024-05-09T15:33:15.274Z,30.81
2024-05-09T15:35:46.187Z,30.72
2024-05-09T15:38:15.621Z,30.64
2024-05-09T15:40:44.060Z,30.67
2024-05-09T15:43:12.624Z,30.82
2024-05-09T15:45:41.762Z,30.85
2024-05-09T15:48:11.353Z,31.51
2024-05-09T15:50:42.033Z,31.77
2024-05-09T15:53:13.216Z,31.84
2024-05-09T15:55:43.045Z,32.05
2024-05-09T15:58:11.600Z,32.26
2024-05-09T16:00:42.825Z,32.69
2024-05-09T16:03:14.236Z,32.83
2024-05-09T16:05:45.494Z,33.17
2024-05-09T16:08:15.178Z,33.44
2024-05-09T16:10:45.904Z,34.02
2024-05-09T16:13:16.618Z,33.89
2024-05-09T16:15:46.193Z,34.34
2024-05-09T16:18:14.993Z,34.73
2024-05-09T16:20:44.964Z,35.42
2024-05-09T16:23:14.810Z,35.48
2024-05-09T16:25:46.102Z,35.85
2024-05-09T16:28:14.724Z,36.23
2024-05-09T16:30:43.114Z,36.34
2024-05-09T16:33:11.973Z,37.08
2024-05-09T16:35:40.628Z,36.92
2024-05-09T16:38:09.052Z,37.15
2024-05-09T16:40:40.460Z,37.30
2024-05-09T16:43:12.013Z,38.00
2024-05-09T16:45:46.233Z,37.98
2024-05-09T16:48:14.734Z,38.22
2024-05-09T16:50:43.504Z,38.86
2024-05-09T16:53:13.568Z,38.88
2024-05-09T16:55:41.751Z,39.22
2024-05-09T16:58:12.405Z,39.49
2024-05-09T17:00:43.440Z,40.09
2024-05-09T17:03:15.270Z,40.36
2024-05-09T17:05:46.927Z,41.11
2024-05-09T17:08:19.946Z,41.27
2024-05-09T17:10:49.448Z,41.84
2024-05-09T17:13:19.011Z,42.19
2024-05-09T17:15:49.531Z,42.50
2024-05-09T17:18:18.189Z,42.89
2024-05-09T17:20:46.504Z,43.32
2024-05-09T17:23:14.838Z,43.49
2024-05-09T17:25:43.505Z,43.59
2024-05-09T17:28:12.462Z,44.15
2024-05-09T17:30:42.497Z,44.44
2024-05-09T17:33:13.019Z,45.45
2024-05-09T17:35:41.921Z,45.26
2024-05-09T17:38:10.231Z,46.22
2024-05-09T17:40:39.238Z,46.36
2024-05-09T17:43:10.430Z,46.74
2024-05-09T17:45:41.064Z,47.68
2024-05-09T17:48:11.927Z,47.36
2024-05-09T17:50:41.913Z,48.10
2024-05-09T17:53:10.834Z,48.75
2024-05-09T17:55:40.119Z,49.22
2024-05-09T17:58:08.687Z,48.95
2024-05-09T18:00:40.274Z,49.86
2024-05-09T18:03:12.477Z,49.45
2024-05-09T18:05:44.271Z,49.34
2024-05-09T18:08:13.534Z,49.75
2024-05-09T18:10:42.866Z,50.34
2024-05-09T18:13:12.887Z,51.01
2024-05-09T18:15:41.665Z,52.64
2024-05-09T18:18:11.671Z,53.42
2024-05-09T18:20:44.265Z,52.04
2024-05-09T18:23:17.551Z,52.06
2024-05-09T18:25:48.045Z,52.02
2024-05-09T18:28:17.330Z,51.64
2024-05-09T18:30:46.489Z,51.86
2024-05-09T18:33:15.781Z,51.84
2024-05-09T18:35:45.415Z,52.46
2024-05-09T18:38:14.161Z,52.84
2024-05-09T18:40:44.758Z,52.92
2024-05-09T18:43:15.620Z,53.45
2024-05-09T18:45:45.140Z,53.78
2024-05-09T18:48:13.623Z,54.21
2024-05-09T18:50:42.249Z,54.81
2024-05-09T18:53:12.133Z,54.90
2024-05-09T18:55:44.776Z,55.91
2024-05-09T18:58:13.390Z,56.38
2024-05-09T19:00:44.159Z,56.99
2024-05-09T19:03:15.672Z,59.80
2024-05-09T19:05:46.135Z,59.01
2024-05-09T19:08:15.624Z,58.46
2024-05-09T19:10:45.803Z,58.31
2024-05-09T19:13:15.071Z,58.28
2024-05-09T19:15:44.498Z,57.29
2024-05-09T19:18:14.264Z,57.26
2024-05-09T19:20:43.813Z,58.31
2024-05-09T19:23:12.447Z,59.05
2024-05-09T19:25:40.868Z,59.20
2024-05-09T19:28:09.404Z,59.04
2024-05-09T19:30:41.330Z,58.76
2024-05-09T19:33:14.762Z,59.19
2024-05-09T19:35:43.961Z,59.69
2024-05-09T19:38:12.289Z,60.23
2024-05-09T19:40:41.676Z,60.10
2024-05-09T19:43:11.067Z,60.02
2024-05-09T19:45:39.684Z,59.97
2024-05-09T19:48:08.520Z,60.32
2024-05-09T19:50:42.515Z,61.35
2024-05-09T19:53:14.696Z,61.96
2024-05-09T19:55:43.470Z,61.94
2024-05-09T19:58:12.860Z,62.00
2024-05-09T20:00:43.627Z,62.25
2024-05-09T20:03:15.093Z,62.24
2024-05-09T20:05:46.714Z,62.54
2024-05-09T20:08:16.777Z,62.82
2024-05-09T20:10:45.103Z,63.64
2024-05-09T20:13:13.671Z,64.12
2024-05-09T20:15:42.440Z,64.39
2024-05-09T20:18:11.429Z,64.20
2024-05-09T20:20:42.998Z,64.23
2024-05-09T20:23:13.907Z,64.02
2024-05-09T20:25:42.677Z,64.23
2024-05-09T20:28:11.243Z,64.91
2024-05-09T20:30:39.995Z,65.32
2024-05-09T20:33:09.691Z,65.22
2024-05-09T20:35:38.584Z,65.29
2024-05-09T20:38:07.202Z,65.44
2024-05-09T20:40:38.456Z,65.48
2024-05-09T20:43:11.675Z,66.00
2024-05-09T20:45:40.684Z,66.63
2024-05-09T20:48:09.834Z,66.91
2024-05-09T20:50:41.387Z,66.71
2024-05-09T20:53:13.501Z,66.58
2024-05-09T20:55:44.399Z,66.69
2024-05-09T20:58:13.925Z,66.69
2024-05-09T21:00:45.476Z,67.39
2024-05-09T21:03:17.036Z,68.12
2024-05-09T21:05:47.814Z,68.50
2024-05-09T21:08:16.689Z,68.55
2024-05-09T21:10:44.966Z,68.53
2024-05-09T21:13:13.408Z,68.33
2024-05-09T21:15:41.845Z,68.17
2024-05-09T21:18:10.368Z,68.61
2024-05-09T21:20:38.711Z,69.09
2024-05-09T21:23:06.962Z,69.13
2024-05-09T21:25:35.152Z,69.13
2024-05-09T21:28:03.946Z,69.25
2024-05-09T21:30:41.058Z,76.25
2024-05-09T21:33:13.455Z,76.59
2024-05-09T21:35:44.616Z,76.47
2024-05-09T21:38:14.713Z,78.02
2024-05-09T21:40:44.932Z,78.24
2024-05-09T21:43:14.418Z,78.52
2024-05-09T21:45:43.431Z,78.07
2024-05-09T21:48:13.302Z,75.07
2024-05-09T21:50:42.600Z,72.50
2024-05-09T21:53:12.592Z,72.06
2024-05-09T21:55:42.547Z,72.32
2024-05-09T21:58:14.689Z,72.29
2024-05-09T22:00:45.587Z,71.89
2024-05-09T22:03:14.331Z,71.71
2024-05-09T22:05:44.919Z,71.55
2024-05-09T22:08:13.938Z,71.66
2024-05-09T22:10:42.672Z,72.25
2024-05-09T22:13:11.221Z,72.35
2024-05-09T22:15:40.529Z,72.10
2024-05-09T22:18:10.995Z,72.09
2024-05-09T22:20:45.492Z,71.99
2024-05-09T22:23:15.731Z,72.13
2024-05-09T22:25:44.599Z,73.96
2024-05-09T22:28:15.381Z,73.29
2024-05-09T22:30:48.225Z,72.85
2024-05-09T22:33:16.562Z,72.84
2024-05-09T22:35:47.326Z,72.51
2024-05-09T22:38:15.511Z,72.86
2024-05-09T22:40:48.332Z,73.23
2024-05-09T22:43:20.794Z,73.42
2024-05-09T22:45:50.996Z,73.37
2024-05-09T22:48:19.744Z,73.31
2024-05-09T22:50:48.572Z,73.19
2024-05-09T22:53:17.010Z,73.56
2024-05-09T22:55:45.374Z,74.01
2024-05-09T22:58:13.607Z,74.38
2024-05-09T23:00:42.186Z,77.58
2024-05-09T23:03:10.590Z,82.43
2024-05-09T23:05:39.141Z,78.29
2024-05-09T23:08:08.605Z,76.17
2024-05-09T23:10:38.086Z,75.75
2024-05-09T23:13:07.918Z,75.72
2024-05-09T23:15:39.818Z,75.67
2024-05-09T23:18:08.587Z,75.36
2024-05-09T23:20:39.428Z,75.28
2024-05-09T23:23:10.360Z,74.85
2024-05-09T23:25:43.800Z,74.85
2024-05-09T23:28:12.698Z,75.22
2024-05-09T23:30:41.980Z,75.20
2024-05-09T23:33:12.899Z,75.07
2024-05-09T23:35:45.966Z,75.13
2024-05-09T23:38:14.529Z,75.42
2024-05-09T23:40:43.524Z,75.85
2024-05-09T23:43:14.164Z,75.84
2024-05-09T23:45:43.208Z,75.96
2024-05-09T23:48:11.872Z,75.53
2024-05-09T23:50:41.019Z,75.57
2024-05-09T23:53:10.978Z,75.43
2024-05-09T23:55:40.570Z,75.84
2024-05-09T23:58:11.286Z,75.98
